Naylor, Georgia
Current Conditions -  °F | °C
As of 6:58 AM on Monday 20 Oct 2014 (Local Time) from KVAD Reporting Station
Broken Clouds Broken Clouds  
Wind Chill: 54°   Ceiling: 4700
Heat Index: 54°   Visibility: 10mi
Dew Point: 52°   Wind: 3mph
Humidity: 92%   Direction: 40°NE
Pressure: 30.08"   Gusts: NA
Location:  30.91°N, 83.08°W
Report Text: KVAD 201058Z AUTO 04003KT 10SM BKN047 12/11 A3008 RMK AO2 SLP188 T01240112 $
Loading
Personal Weather Stations






























Interactive Weather Map
Tropical Storm Tracking
New forecast layout! Learn more

10-Day Weather Forecast

Advertisements
Track Severe Weather on mobile